Time;durP1;ratioP1;P1;durP2;ratioP2;P2;SDS_P1;SDS_P2;PMS_P1;PMS_P2;Temp;Humidity;BMP_temperature;BMP_pressure;BME280_temperature;BME280_humidity;BME280_pressure;Samples;Min_cycle;Max_cycle;Signal;HPM_P1;HPM_P2
2022/03/23 00:04:39;;;;;;;68.70;36.75;;;;;;;5.73;100.00;103097.88;10387566;28;20049;-69
2022/03/23 00:09:39;;;;;;;62.90;34.20;;;;;;;5.77;100.00;103114.78;10386580;28;20038;-69
2022/03/23 00:14:40;;;;;;;70.82;36.47;;;;;;;5.72;100.00;103112.53;10387072;28;20038;-68
2022/03/23 00:19:40;;;;;;;68.93;35.20;;;;;;;5.63;100.00;103108.09;10390499;28;20029;-69
2022/03/23 00:24:40;;;;;;;64.30;37.00;;;;;;;5.63;100.00;103110.81;10427173;28;20417;-69
2022/03/23 00:29:41;;;;;;;74.45;37.50;;;;;;;5.41;100.00;103085.81;10415458;28;20037;-69
2022/03/23 00:34:41;;;;;;;70.25;36.42;;;;;;;5.52;100.00;103111.09;10387837;28;20022;-69
2022/03/23 00:39:42;;;;;;;74.22;37.47;;;;;;;5.53;100.00;103112.84;10385618;28;20026;-69
2022/03/23 00:44:42;;;;;;;71.63;38.22;;;;;;;5.38;100.00;103093.50;10386740;28;20034;-69
2022/03/23 00:49:43;;;;;;;72.97;38.92;;;;;;;5.42;100.00;103114.00;10369234;28;20117;-69
2022/03/23 00:54:43;;;;;;;67.95;37.55;;;;;;;5.37;100.00;103119.94;10386167;28;20018;-69
2022/03/23 00:59:44;;;;;;;75.07;37.55;;;;;;;5.31;100.00;103112.41;10385729;28;20084;-69
2022/03/23 01:04:44;;;;;;;75.47;38.83;;;;;;;5.29;100.00;103125.38;10386216;28;20061;-69
2022/03/23 01:09:45;;;;;;;77.88;39.70;;;;;;;5.22;100.00;103105.22;10405736;28;20041;-69
2022/03/23 01:14:45;;;;;;;82.65;41.58;;;;;;;5.20;100.00;103109.97;10376218;28;20048;-69
2022/03/23 01:19:46;;;;;;;76.28;39.90;;;;;;;5.12;100.00;103109.94;10409784;28;20029;-69
2022/03/23 01:24:46;;;;;;;79.93;41.25;;;;;;;5.05;100.00;103096.94;10417148;28;20037;-69
2022/03/23 01:29:47;;;;;;;82.60;42.67;;;;;;;5.00;100.00;103110.22;10432986;28;20033;-68
2022/03/23 01:34:47;;;;;;;81.35;41.47;;;;;;;4.60;100.00;103046.19;10433146;28;20044;-69
2022/03/23 01:39:48;;;;;;;86.47;44.40;;;;;;;4.88;100.00;103099.72;10433930;28;20033;-69
2022/03/23 01:44:48;;;;;;;88.50;44.03;;;;;;;4.76;100.00;103085.53;10392810;28;20041;-69
2022/03/23 01:49:53;;;;;;;92.60;46.70;;;;;;;4.72;100.00;103087.72;10375244;28;20034;-69
2022/03/23 01:54:53;;;;;;;98.20;47.13;;;;;;;4.69;100.00;103084.44;10382609;28;20513;-69
2022/03/23 01:59:54;;;;;;;101.85;48.75;;;;;;;4.70;100.00;103091.63;10424608;28;20030;-68
2022/03/23 02:04:54;;;;;;;104.20;49.50;;;;;;;4.51;100.00;103069.00;10428794;28;20045;-68
2022/03/23 02:09:55;;;;;;;100.20;49.67;;;;;;;4.55;100.00;103080.47;10433192;28;20030;-69
2022/03/23 02:14:56;;;;;;;105.53;51.03;;;;;;;4.54;100.00;103081.47;10431514;28;20064;-69
2022/03/23 02:19:56;;;;;;;97.68;49.65;;;;;;;4.51;100.00;103079.06;10406794;28;20332;-69
2022/03/23 02:24:56;;;;;;;109.18;51.67;;;;;;;4.42;100.00;103070.81;10373729;28;20041;-69
2022/03/23 02:29:57;;;;;;;102.32;49.70;;;;;;;4.36;100.00;103063.28;10391168;28;20049;-69
2022/03/23 02:35:00;;;;;;;104.75;51.17;;;;;;;4.28;100.00;103065.94;10373308;28;20033;-68
2022/03/23 02:40:00;;;;;;;102.63;50.97;;;;;;;4.21;100.00;103065.69;10389187;28;20030;-68
2022/03/23 02:45:01;;;;;;;116.05;53.97;;;;;;;4.24;100.00;103079.03;10379576;28;20053;-69
2022/03/23 02:50:01;;;;;;;107.07;50.67;;;;;;;4.15;100.00;103077.22;10429854;28;20033;-69
2022/03/23 03:06:10;;;;;;;107.93;50.42;;;;;;;3.82;100.00;103055.16;10400419;28;20073;-69
2022/03/23 03:11:11;;;;;;;106.47;51.67;;;;;;;3.93;100.00;103085.91;10389277;28;20064;-69
2022/03/23 03:16:11;;;;;;;99.45;50.03;;;;;;;3.88;100.00;103080.06;10356227;28;20097;-69
2022/03/23 03:21:12;;;;;;;103.38;51.35;;;;;;;3.77;100.00;103073.84;10390015;28;20041;-69
2022/03/23 03:26:14;;;;;;;119.13;52.63;;;;;;;3.78;100.00;103085.56;10371362;28;20049;-69
2022/03/23 03:31:15;;;;;;;113.15;52.85;;;;;;;3.74;100.00;103092.34;10370732;28;20477;-69
2022/03/23 03:36:15;;;;;;;116.40;52.88;;;;;;;3.67;100.00;103078.50;10371007;28;20081;-69
2022/03/23 03:41:16;;;;;;;114.10;54.45;;;;;;;3.70;100.00;103091.81;10370542;28;20044;-69
2022/03/23 03:46:17;;;;;;;112.07;52.40;;;;;;;3.60;100.00;103088.31;10388388;28;20034;-68
2022/03/23 03:51:18;;;;;;;100.93;51.13;;;;;;;3.61;100.00;103095.47;10371583;28;20034;-69
2022/03/23 03:56:18;;;;;;;102.05;50.83;;;;;;;3.50;100.00;103088.38;10387350;28;20033;-69
2022/03/23 04:01:19;;;;;;;116.18;52.17;;;;;;;3.56;100.00;103092.34;10387145;28;20054;-69
2022/03/23 04:06:20;;;;;;;107.72;52.58;;;;;;;3.51;100.00;103105.56;10387884;28;20137;-69
2022/03/23 04:11:20;;;;;;;119.13;56.28;;;;;;;3.57;100.00;103113.97;10370033;28;20042;-69
2022/03/23 04:16:21;;;;;;;107.53;54.83;;;;;;;3.54;100.00;103099.81;10370729;28;20036;-69
2022/03/23 04:21:22;;;;;;;108.72;52.45;;;;;;;3.49;100.00;103107.56;10388087;28;20026;-68
2022/03/23 04:26:22;;;;;;;111.55;53.30;;;;;;;3.38;100.00;103101.31;10386329;28;20058;-69
2022/03/23 04:31:22;;;;;;;118.35;55.50;;;;;;;3.36;100.00;103100.63;10385812;28;20026;-69
2022/03/23 04:36:23;;;;;;;115.43;53.78;;;;;;;3.39;100.00;103105.78;10428089;28;20036;-69
2022/03/23 04:41:23;;;;;;;109.80;55.80;;;;;;;3.37;100.00;103109.63;10426368;28;20042;-70
2022/03/23 04:46:24;;;;;;;114.47;54.17;;;;;;;3.29;100.00;103102.25;10401924;28;20056;-68
2022/03/23 04:51:24;;;;;;;106.53;54.42;;;;;;;3.27;100.00;103104.25;10428884;28;20033;-69
2022/03/23 04:56:25;;;;;;;108.80;53.65;;;;;;;3.13;100.00;103083.84;10433928;28;20032;-69
2022/03/23 05:01:26;;;;;;;108.78;52.35;;;;;;;3.13;100.00;103096.59;10432980;28;20049;-69
2022/03/23 05:06:26;;;;;;;109.25;52.38;;;;;;;3.07;100.00;103092.59;10433805;28;20053;-69
2022/03/23 05:11:27;;;;;;;109.70;56.28;;;;;;;3.05;100.00;103102.78;10434250;28;20034;-69
2022/03/23 05:16:27;;;;;;;110.13;55.22;;;;;;;2.98;100.00;103105.25;10435123;28;20059;-68
2022/03/23 05:21:28;;;;;;;112.53;54.97;;;;;;;2.70;100.00;103057.25;10435383;28;20029;-68
2022/03/23 05:26:28;;;;;;;105.22;52.80;;;;;;;2.98;100.00;103116.13;10432579;28;20060;-69
2022/03/23 05:31:29;;;;;;;109.95;54.28;;;;;;;2.84;100.00;103086.69;10416557;28;20045;-69
2022/03/23 05:36:30;;;;;;;99.97;50.40;;;;;;;2.94;100.00;103103.00;10434369;28;20159;-68
2022/03/23 05:41:30;;;;;;;101.10;53.60;;;;;;;2.98;100.00;103110.69;10431988;28;20125;-69
2022/03/23 05:46:31;;;;;;;104.55;52.47;;;;;;;2.98;100.00;103112.56;10417062;28;20034;-68
2022/03/23 05:51:31;;;;;;;101.32;49.88;;;;;;;3.01;100.00;103121.25;10433777;28;20021;-68
2022/03/23 05:56:32;;;;;;;96.97;50.88;;;;;;;3.04;100.00;103120.13;10394507;28;20049;-69
2022/03/23 06:01:32;;;;;;;101.55;50.33;;;;;;;3.11;100.00;103134.00;10371722;28;20045;-69
2022/03/23 06:06:33;;;;;;;103.78;50.38;;;;;;;3.15;100.00;103133.53;10391740;28;20038;-69
2022/03/23 06:11:33;;;;;;;103.85;53.92;;;;;;;3.29;100.00;103137.63;10390682;28;20018;-69
2022/03/23 06:16:34;;;;;;;108.18;53.78;;;;;;;3.41;100.00;103138.28;10391241;28;20057;-69
2022/03/23 06:21:34;;;;;;;98.85;52.40;;;;;;;3.51;100.00;103130.06;10389842;28;20441;-68
2022/03/23 06:26:35;;;;;;;93.68;49.03;;;;;;;3.75;100.00;103141.25;10389093;28;20026;-69
2022/03/23 06:31:35;;;;;;;90.97;50.28;;;;;;;4.02;100.00;103143.06;10390681;28;20026;-69
2022/03/23 06:36:36;;;;;;;90.40;48.50;;;;;;;4.35;100.00;103156.16;10356970;28;20030;-69
2022/03/23 06:41:36;;;;;;;94.72;51.95;;;;;;;4.63;100.00;103162.34;10389844;28;20146;-69
2022/03/23 06:46:37;;;;;;;81.03;44.25;;;;;;;4.84;100.00;103160.13;10391209;28;20044;-68
2022/03/23 06:51:37;;;;;;;71.53;42.17;;;;;;;5.11;100.00;103149.19;10373414;28;20034;-69
2022/03/23 06:56:38;;;;;;;68.90;40.38;;;;;;;5.42;100.00;103164.03;10390445;28;20613;-69
2022/03/23 07:01:38;;;;;;;64.40;37.63;;;;;;;5.56;100.00;103146.16;10388035;28;20054;-69
2022/03/23 07:06:39;;;;;;;51.65;30.70;;;;;;;5.88;100.00;103151.88;10409958;28;20037;-69
2022/03/23 07:11:39;;;;;;;44.97;25.50;;;;;;;6.12;100.00;103154.69;10391580;28;20029;-69
2022/03/23 07:16:42;;;;;;;44.90;26.08;;;;;;;6.43;100.00;103157.63;10389369;28;20029;-70
2022/03/23 07:21:43;;;;;;;44.65;25.08;;;;;;;6.74;100.00;103161.53;10389736;28;20038;-69
2022/03/23 07:26:44;;;;;;;43.90;25.25;;;;;;;6.99;100.00;103165.97;10389023;28;20026;-70
2022/03/23 07:31:46;;;;;;;36.90;24.15;;;;;;;7.29;100.00;103174.44;10400637;28;20105;-69
2022/03/23 07:36:47;;;;;;;44.03;24.90;;;;;;;7.43;100.00;103170.97;10412091;28;20026;-70
2022/03/23 07:41:52;;;;;;;38.90;25.30;;;;;;;7.60;100.00;103168.16;10429939;28;20397;-69
2022/03/23 07:46:52;;;;;;;38.55;23.10;;;;;;;7.76;100.00;103187.28;10390193;28;20042;-69
2022/03/23 07:51:53;;;;;;;43.83;24.13;;;;;;;7.80;100.00;103177.66;10370885;28;20022;-70
2022/03/23 07:56:53;;;;;;;35.65;23.52;;;;;;;7.88;100.00;103174.88;10370668;28;20026;-69
2022/03/23 08:01:54;;;;;;;39.30;23.17;;;;;;;7.99;100.00;103192.81;10422061;28;20397;-70
2022/03/23 08:06:54;;;;;;;37.13;22.70;;;;;;;8.01;100.00;103162.47;10445449;28;20418;-69
2022/03/23 08:11:56;;;;;;;34.88;22.13;;;;;;;8.29;100.00;103185.59;10448965;28;20021;-70
2022/03/23 08:16:56;;;;;;;43.05;22.80;;;;;;;8.53;100.00;103183.72;10449982;28;20029;-69
2022/03/23 08:21:57;;;;;;;35.72;22.58;;;;;;;8.73;100.00;103172.22;10447619;28;20033;-70
2022/03/23 08:26:58;;;;;;;34.92;22.55;;;;;;;9.04;100.00;103186.69;10420571;28;20093;-70
2022/03/23 08:31:58;;;;;;;38.60;21.00;;;;;;;9.33;100.00;103178.66;10434194;28;20025;-70
2022/03/23 08:37:00;;;;;;;33.58;21.38;;;;;;;9.47;100.00;103169.56;10435679;28;20033;-70
2022/03/23 08:42:00;;;;;;;34.00;21.52;;;;;;;9.74;100.00;103175.41;10433758;28;20037;-69
2022/03/23 08:47:01;;;;;;;30.92;20.42;;;;;;;10.00;100.00;103174.84;10432787;28;20025;-70
2022/03/23 08:52:01;;;;;;;33.40;20.50;;;;;;;9.99;100.00;103138.22;10433440;28;20030;-70
2022/03/23 08:57:02;;;;;;;32.85;20.05;;;;;;;10.54;100.00;103187.28;10432323;28;20025;-70
2022/03/23 09:02:02;;;;;;;31.00;19.25;;;;;;;10.88;100.00;103179.13;10433942;28;20046;-70
2022/03/23 09:07:03;;;;;;;33.85;20.63;;;;;;;11.20;100.00;103162.16;10432890;28;20030;-70
2022/03/23 09:12:04;;;;;;;27.15;18.02;;;;;;;11.69;99.77;103174.94;10434154;28;20493;-70
2022/03/23 09:17:04;;;;;;;30.88;19.20;;;;;;;12.11;93.25;103161.94;10435294;28;20441;-70
2022/03/23 09:22:06;;;;;;;27.13;17.80;;;;;;;12.54;92.39;103167.13;10432467;28;20033;-70
2022/03/23 09:27:07;;;;;;;27.65;16.88;;;;;;;12.96;84.47;103158.59;10432230;28;20029;-70
2022/03/23 09:32:10;;;;;;;24.08;17.58;;;;;;;13.24;80.00;103141.75;10432029;28;20037;-70
2022/03/23 09:42:29;;;;;;;23.38;14.82;;;;;;;13.92;71.93;103136.59;10377967;28;20068;-69
2022/03/23 09:47:30;;;;;;;19.25;14.70;;;;;;;14.15;68.23;103114.94;10376144;28;20048;-68
2022/03/23 09:52:30;;;;;;;26.45;15.93;;;;;;;14.47;64.77;103099.13;10375671;28;20033;-69
2022/03/23 09:57:31;;;;;;;22.13;14.65;;;;;;;14.81;64.02;103110.81;10407146;28;20033;-69
2022/03/23 10:02:40;;;;;;;18.60;14.48;;;;;;;15.08;62.63;103116.91;10433400;28;20107;-69
2022/03/23 10:08:09;;;;;;;17.42;14.27;;;;;;;15.22;58.24;103098.22;10450863;28;20044;-68
2022/03/23 10:13:24;;;;;;;19.42;13.75;;;;;;;15.54;60.32;103115.50;10451480;28;20471;-69
2022/03/23 10:18:46;;;;;;;17.65;12.80;;;;;;;15.73;55.98;103095.00;10447150;28;20428;-69
2022/03/23 10:23:59;;;;;;;19.48;12.88;;;;;;;16.00;53.49;103090.97;10436125;28;20396;-69
2022/03/23 10:29:00;;;;;;;18.17;12.75;;;;;;;16.16;51.54;103078.34;10431546;28;20042;-69
2022/03/23 10:34:10;;;;;;;19.02;14.27;;;;;;;16.46;52.12;103090.25;10415186;28;20040;-70
2022/03/23 10:39:12;;;;;;;17.00;12.55;;;;;;;16.70;50.55;103084.69;10430693;28;20030;-71
2022/03/23 10:44:16;;;;;;;15.68;12.20;;;;;;;16.92;50.06;103083.00;10431300;28;20127;-70
2022/03/23 10:49:16;;;;;;;16.52;13.00;;;;;;;17.22;51.11;103072.78;10394642;28;20044;-70
2022/03/23 10:54:18;;;;;;;18.52;13.98;;;;;;;17.49;48.86;103062.81;10389265;28;20022;-71
2022/03/23 10:59:23;;;;;;;20.73;13.73;;;;;;;17.71;49.29;103056.53;10389216;28;20041;-71
2022/03/23 11:04:24;;;;;;;25.20;15.32;;;;;;;17.65;48.99;103012.94;10372737;28;20053;-72
2022/03/23 11:20:56;;;;;;;18.92;12.80;;;;;;;18.41;45.86;103030.16;10389085;28;20052;-71
2022/03/23 11:25:57;;;;;;;22.23;14.35;;;;;;;18.66;46.04;103046.44;10372642;28;20404;-72
2022/03/23 11:30:58;;;;;;;19.63;13.63;;;;;;;18.91;44.58;103025.63;10417658;28;20478;-70
2022/03/23 11:35:58;;;;;;;15.55;12.80;;;;;;;19.14;42.66;103019.81;10429967;28;20400;-70
2022/03/23 11:40:59;;;;;;;18.95;12.45;;;;;;;19.42;42.80;103020.66;10411962;28;20041;-71
2022/03/23 11:46:00;;;;;;;17.15;11.82;;;;;;;19.66;41.71;103006.41;10388305;28;20497;-70
2022/03/23 11:51:23;;;;;;;18.88;10.55;;;;;;;19.78;40.60;103009.06;10371517;28;20068;-69
2022/03/23 11:56:26;;;;;;;18.27;10.90;;;;;;;19.88;39.66;102996.00;10403725;28;20033;-72
2022/03/23 12:01:30;;;;;;;17.30;10.30;;;;;;;20.18;39.49;102993.75;10392079;28;20113;-70
2022/03/23 12:06:47;;;;;;;18.95;9.55;;;;;;;20.66;39.48;102992.69;10385969;28;20141;-70
2022/03/23 12:11:49;;;;;;;14.45;9.00;;;;;;;21.06;36.08;102959.53;10387322;28;20043;-70
2022/03/23 12:16:50;;;;;;;17.60;9.90;;;;;;;21.88;37.42;102984.94;10404203;28;20045;-69
2022/03/23 12:22:06;;;;;;;18.50;10.38;;;;;;;22.85;36.97;102978.34;10403275;28;20042;-69
2022/03/23 12:27:13;;;;;;;17.50;10.03;;;;;;;23.65;33.79;102960.47;10411976;28;20013;-70
2022/03/23 12:32:15;;;;;;;18.50;9.52;;;;;;;24.11;33.78;102954.50;10444803;28;20036;-69
2022/03/23 12:37:16;;;;;;;17.92;9.85;;;;;;;24.97;32.68;102960.25;10414270;28;20053;-70
2022/03/23 12:42:18;;;;;;;19.65;10.88;;;;;;;24.87;31.36;102954.81;10446558;28;20406;-68
2022/03/23 12:47:20;;;;;;;22.23;9.35;;;;;;;24.47;32.63;102959.72;10446035;28;20033;-71
2022/03/23 12:57:49;;;;;;;21.73;10.10;;;;;;;24.80;31.51;102954.31;10427291;28;20343;-71
2022/03/23 13:02:50;;;;;;;22.20;10.25;;;;;;;24.90;29.81;102943.75;10425358;28;20049;-71
2022/03/23 13:07:51;;;;;;;20.30;9.70;;;;;;;25.05;31.07;102939.88;10393641;28;20041;-71
2022/03/23 13:12:58;;;;;;;16.17;9.35;;;;;;;25.38;31.72;102948.44;10394533;28;20053;-69
2022/03/23 13:17:59;;;;;;;21.05;9.27;;;;;;;25.33;30.71;102938.09;10376266;28;20401;-69
2022/03/23 13:23:00;;;;;;;18.13;8.35;;;;;;;25.44;30.89;102944.41;10392544;28;20037;-68
2022/03/23 13:28:00;;;;;;;23.10;8.63;;;;;;;25.53;30.17;102922.00;10375655;28;20060;-69
2022/03/23 13:33:01;;;;;;;24.77;8.27;;;;;;;25.70;30.13;102918.63;10392782;28;20037;-69
2022/03/23 13:38:04;;;;;;;20.45;10.00;;;;;;;25.88;30.52;102919.69;10394908;28;20032;-68
2022/03/23 13:43:20;;;;;;;24.00;8.70;;;;;;;26.14;28.25;102897.50;10393034;28;20436;-69
2022/03/23 13:48:20;;;;;;;28.57;8.17;;;;;;;26.43;29.32;102913.31;10393038;28;20040;-70
2022/03/23 13:53:21;;;;;;;28.35;9.00;;;;;;;26.56;28.45;102904.84;10391432;28;20362;-69
2022/03/23 13:58:23;;;;;;;21.00;7.53;;;;;;;26.46;29.12;102898.56;10390601;28;20561;-71
2022/03/23 14:03:30;;;;;;;21.80;10.40;;;;;;;26.45;28.52;102905.38;10408719;28;20441;-73
2022/03/23 14:08:36;;;;;;;23.38;10.55;;;;;;;26.34;28.52;102890.63;10432350;28;20537;-72
2022/03/23 14:13:38;;;;;;;19.40;10.95;;;;;;;26.40;29.30;102894.16;10431120;28;20414;-72
2022/03/23 14:18:39;;;;;;;16.45;10.18;;;;;;;26.50;29.74;102905.25;10412893;28;20041;-71
2022/03/23 14:23:40;;;;;;;22.52;9.73;;;;;;;26.23;29.26;102886.31;10415460;28;20033;-71
2022/03/23 14:28:45;;;;;;;14.68;8.43;;;;;;;26.42;28.40;102874.91;10450993;28;20418;-72
2022/03/23 14:34:07;;;;;;;19.08;9.18;;;;;;;26.03;28.76;102884.75;10429810;28;20022;-70
2022/03/23 14:39:26;;;;;;;21.35;7.85;;;;;;;26.21;29.13;102868.88;10417278;28;20037;-69
2022/03/23 14:44:37;;;;;;;15.77;8.25;;;;;;;26.25;29.75;102872.72;10432587;28;20105;-70
2022/03/23 14:49:39;;;;;;;20.92;7.80;;;;;;;26.30;28.53;102859.34;10456947;28;20033;-69
2022/03/23 14:54:41;;;;;;;17.80;6.90;;;;;;;26.18;29.92;102859.03;10471733;28;20029;-69
2022/03/23 14:59:42;;;;;;;28.45;7.65;;;;;;;26.29;29.07;102854.84;10434535;28;20087;-69
2022/03/23 15:04:44;;;;;;;18.60;6.78;;;;;;;26.22;29.83;102851.63;10429689;28;20133;-69
2022/03/23 15:15:04;;;;;;;19.67;7.90;;;;;;;25.82;28.17;102839.09;10446682;28;20047;-70
2022/03/23 15:20:06;;;;;;;16.60;6.75;;;;;;;25.99;28.00;102849.84;10442650;28;20036;-70
2022/03/23 15:25:07;;;;;;;21.40;8.63;;;;;;;26.00;27.24;102843.88;10373484;28;20426;-70
2022/03/23 15:30:09;;;;;;;20.17;8.10;;;;;;;26.15;29.04;102854.88;10376638;28;20036;-70
2022/03/23 15:35:09;;;;;;;19.90;9.20;;;;;;;26.08;29.36;102867.72;10395768;28;20038;-71
2022/03/23 15:40:10;;;;;;;23.60;8.70;;;;;;;26.15;28.00;102846.41;10395709;28;20021;-70
2022/03/23 15:45:11;;;;;;;24.77;10.00;;;;;;;26.18;28.51;102853.41;10380377;28;20030;-70
2022/03/23 15:50:12;;;;;;;16.98;9.82;;;;;;;25.93;29.25;102852.75;10387272;28;20056;-70
2022/03/23 15:55:13;;;;;;;19.73;8.95;;;;;;;25.80;28.74;102842.25;10355799;28;20041;-70
2022/03/23 16:00:14;;;;;;;25.27;10.13;;;;;;;25.55;27.96;102838.75;10385541;28;20033;-69
2022/03/23 16:05:14;;;;;;;25.98;11.20;;;;;;;24.98;28.86;102849.25;10428916;28;20045;-68
2022/03/23 16:10:15;;;;;;;24.30;10.68;;;;;;;24.17;30.16;102863.25;10411077;28;20069;-69
2022/03/23 16:15:16;;;;;;;20.67;9.88;;;;;;;23.26;29.67;102846.94;10403051;28;20037;-69
2022/03/23 16:20:17;;;;;;;22.15;10.00;;;;;;;22.36;31.73;102857.25;10446153;28;20366;-68
2022/03/23 16:25:18;;;;;;;16.60;9.55;;;;;;;21.00;34.54;102871.91;10415544;28;20025;-68
2022/03/23 16:30:19;;;;;;;28.08;10.07;;;;;;;19.71;35.98;102877.94;10453010;28;20556;-69
2022/03/23 16:35:22;;;;;;;23.35;11.32;;;;;;;18.56;39.28;102901.25;10416785;28;20056;-68
2022/03/23 16:40:25;;;;;;;19.23;13.30;;;;;;;17.69;41.91;102897.16;10416169;28;20033;-68
2022/03/23 16:45:26;;;;;;;27.92;16.92;;;;;;;16.78;44.82;102908.22;10432215;28;20448;-68
2022/03/23 16:50:27;;;;;;;29.50;16.98;;;;;;;16.19;46.78;102928.66;10394102;28;20038;-68
2022/03/23 16:55:29;;;;;;;28.48;17.90;;;;;;;15.84;47.66;102910.03;10378399;28;20050;-70
2022/03/23 17:00:34;;;;;;;31.83;18.13;;;;;;;15.50;46.64;102873.63;10413121;28;20075;-70
2022/03/23 17:16:14;;;;;;;31.15;20.15;;;;;;;14.75;53.00;102945.34;10454307;28;20721;-69
2022/03/23 17:21:16;;;;;;;25.60;18.80;;;;;;;14.38;54.37;102948.06;10420254;28;20040;-70
2022/03/23 17:26:18;;;;;;;27.38;18.33;;;;;;;14.03;56.76;102943.09;10433820;28;20112;-70
2022/03/23 17:31:18;;;;;;;30.15;19.80;;;;;;;13.81;58.92;102951.81;10393546;28;20033;-70
2022/03/23 17:36:20;;;;;;;30.35;20.02;;;;;;;13.61;59.73;102953.88;10431287;28;20042;-70
2022/03/23 17:41:20;;;;;;;30.73;20.25;;;;;;;13.29;60.47;102942.78;10434312;28;20041;-70
2022/03/23 17:46:21;;;;;;;34.40;21.00;;;;;;;13.22;63.59;102958.56;10400797;28;20378;-70
2022/03/23 17:51:23;;;;;;;32.78;19.15;;;;;;;12.93;65.34;102964.44;10393519;28;20398;-69
2022/03/23 17:56:23;;;;;;;29.40;20.17;;;;;;;12.62;66.36;102959.66;10396663;28;20037;-68
2022/03/23 18:01:25;;;;;;;35.63;21.17;;;;;;;12.38;68.45;102952.06;10413550;28;20025;-70
2022/03/23 18:06:26;;;;;;;35.97;19.17;;;;;;;12.19;70.37;102982.25;10393081;28;20106;-69
2022/03/23 18:11:27;;;;;;;33.15;20.73;;;;;;;11.95;73.22;102980.13;10415610;28;20021;-68
2022/03/23 18:16:27;;;;;;;31.40;19.88;;;;;;;11.74;74.87;102973.75;10415723;28;20140;-68
2022/03/23 18:21:28;;;;;;;33.05;20.92;;;;;;;11.54;77.38;102978.38;10415285;28;20053;-70
2022/03/23 18:26:28;;;;;;;34.33;21.23;;;;;;;11.34;79.14;102987.44;10414192;28;20041;-70
2022/03/23 18:31:29;;;;;;;32.15;22.02;;;;;;;11.16;81.38;102987.16;10405419;28;20390;-70
2022/03/23 18:36:30;;;;;;;31.63;20.45;;;;;;;10.97;83.00;102986.03;10424616;28;20041;-69
2022/03/23 18:41:30;;;;;;;38.92;20.00;;;;;;;10.77;84.75;102973.03;10409735;28;20053;-70
2022/03/23 18:46:31;;;;;;;34.92;20.60;;;;;;;10.42;88.28;102951.00;10411002;28;20025;-69
2022/03/23 18:51:31;;;;;;;29.98;21.85;;;;;;;10.56;91.55;103008.91;10413128;28;20037;-69
2022/03/23 18:56:32;;;;;;;35.28;23.60;;;;;;;10.33;94.46;102998.16;10413757;28;20048;-69
2022/03/23 19:01:32;;;;;;;39.03;22.83;;;;;;;10.18;98.11;103004.59;10395817;28;20036;-69
2022/03/23 19:06:34;;;;;;;35.17;23.08;;;;;;;9.93;100.00;102997.84;10397609;28;20037;-69
2022/03/23 19:11:34;;;;;;;38.03;23.08;;;;;;;9.82;100.00;103008.31;10413550;28;20041;-69
2022/03/23 19:16:35;;;;;;;39.38;24.83;;;;;;;9.60;100.00;102998.34;10414180;28;20125;-69
2022/03/23 19:21:36;;;;;;;41.17;25.92;;;;;;;9.54;100.00;103021.13;10429483;28;20116;-69
2022/03/23 19:26:36;;;;;;;44.05;24.40;;;;;;;9.39;100.00;103019.28;10428813;28;20025;-69
2022/03/23 19:31:37;;;;;;;40.83;23.88;;;;;;;9.24;100.00;103019.34;10412820;28;20477;-69
2022/03/23 19:36:37;;;;;;;42.92;23.60;;;;;;;9.07;100.00;103021.44;10429143;28;20373;-69
2022/03/23 19:41:41;;;;;;;34.45;23.30;;;;;;;8.97;100.00;103028.25;10412791;28;20037;-69
2022/03/23 19:46:42;;;;;;;39.30;25.33;;;;;;;8.81;100.00;103029.34;10413683;28;20026;-68
2022/03/23 19:51:42;;;;;;;40.13;25.52;;;;;;;8.57;100.00;103019.47;10428385;28;20042;-69
2022/03/23 19:56:43;;;;;;;39.20;23.85;;;;;;;8.42;100.00;103023.03;10394637;28;20057;-69
2022/03/23 20:01:43;;;;;;;35.67;22.70;;;;;;;8.36;100.00;103036.63;10410217;28;20057;-69
2022/03/23 20:06:44;;;;;;;42.08;23.65;;;;;;;8.21;100.00;103047.59;10428234;28;20555;-69
2022/03/23 20:11:44;;;;;;;37.55;22.50;;;;;;;8.00;100.00;103026.31;10393650;28;20438;-68
2022/03/23 20:16:45;;;;;;;42.75;24.70;;;;;;;7.94;100.00;103035.28;10428061;28;20033;-68
2022/03/23 20:21:45;;;;;;;39.70;22.90;;;;;;;7.82;100.00;103035.72;10411637;28;20034;-68
2022/03/23 20:26:46;;;;;;;39.75;22.35;;;;;;;7.77;100.00;103043.66;10394960;28;20021;-68
2022/03/23 20:31:47;;;;;;;39.88;22.33;;;;;;;7.68;100.00;103048.31;10394915;28;20057;-68
2022/03/23 20:36:47;;;;;;;38.63;23.33;;;;;;;7.62;100.00;103048.22;10428001;28;20034;-69
2022/03/23 20:41:48;;;;;;;39.17;23.23;;;;;;;7.54;100.00;103048.25;10395434;28;20033;-69
2022/03/23 20:46:49;;;;;;;42.47;24.00;;;;;;;7.34;100.00;103024.06;10428155;28;20022;-69
2022/03/23 20:51:49;;;;;;;43.83;24.20;;;;;;;7.30;100.00;103044.63;10427569;28;20060;-69
2022/03/23 20:56:50;;;;;;;39.72;23.75;;;;;;;7.12;100.00;103035.81;10410816;28;20033;-69
2022/03/23 21:01:53;;;;;;;41.33;24.17;;;;;;;6.98;100.00;103027.31;10410553;28;20040;-69
2022/03/23 21:07:00;;;;;;;43.67;24.27;;;;;;;6.97;100.00;103039.31;10394694;28;20034;-69
2022/03/23 21:12:01;;;;;;;40.53;25.90;;;;;;;6.86;100.00;103037.81;10412137;28;20310;-68
2022/03/23 21:17:02;;;;;;;41.70;23.50;;;;;;;6.74;100.00;103030.13;10399794;28;20033;-69
2022/03/23 21:22:02;;;;;;;43.22;25.20;;;;;;;6.71;100.00;103041.44;10394065;28;20038;-69
2022/03/23 21:27:03;;;;;;;43.85;25.83;;;;;;;6.59;100.00;103030.84;10415313;28;20037;-69
2022/03/23 21:32:05;;;;;;;46.38;25.27;;;;;;;6.55;100.00;103032.25;10417552;28;20071;-69
2022/03/23 21:37:05;;;;;;;46.45;26.00;;;;;;;6.07;100.00;102965.66;10401297;28;20045;-68
2022/03/23 21:42:06;;;;;;;48.67;30.42;;;;;;;6.39;100.00;103029.56;10433925;28;20033;-68
2022/03/23 21:47:06;;;;;;;51.50;28.00;;;;;;;6.29;100.00;103035.19;10400832;28;20029;-68
2022/03/23 21:52:07;;;;;;;49.35;28.30;;;;;;;6.21;100.00;103037.94;10434186;28;20523;-69
2022/03/23 21:57:07;;;;;;;51.55;29.67;;;;;;;6.10;100.00;103016.41;10433132;28;20075;-69
2022/03/23 22:02:08;;;;;;;52.67;29.00;;;;;;;6.02;100.00;103029.06;10415832;28;20058;-69
2022/03/23 22:07:08;;;;;;;47.83;28.52;;;;;;;5.93;100.00;103024.56;10432583;28;20052;-69
2022/03/23 22:12:09;;;;;;;49.08;30.27;;;;;;;5.94;100.00;103037.22;10399686;28;20328;-69
2022/03/23 22:17:09;;;;;;;52.78;31.73;;;;;;;5.90;100.00;103035.00;10433580;28;20025;-69
2022/03/23 22:22:10;;;;;;;52.17;30.10;;;;;;;5.82;100.00;103027.66;10398526;28;20048;-69
2022/03/23 22:27:10;;;;;;;55.60;30.35;;;;;;;5.60;100.00;103007.31;10384376;28;20044;-69
2022/03/23 22:32:11;;;;;;;54.67;32.08;;;;;;;5.65;100.00;103021.31;10379666;28;20038;-69
2022/03/23 22:37:11;;;;;;;52.42;29.92;;;;;;;5.60;100.00;103026.44;10390248;28;20083;-69
2022/03/23 22:42:13;;;;;;;56.47;32.58;;;;;;;5.47;100.00;103019.56;10374211;28;20037;-69
2022/03/23 22:47:13;;;;;;;57.58;32.42;;;;;;;5.49;100.00;103026.75;10358161;28;20029;-69
2022/03/23 22:52:14;;;;;;;50.42;31.38;;;;;;;5.41;100.00;103025.72;10356146;28;20402;-69
2022/03/23 22:57:15;;;;;;;55.35;31.67;;;;;;;5.36;100.00;103024.53;10372930;28;20333;-69
2022/03/23 23:02:15;;;;;;;52.80;30.63;;;;;;;5.23;100.00;103014.09;10377084;28;20194;-71
2022/03/23 23:07:17;;;;;;;55.00;32.05;;;;;;;5.16;100.00;103005.66;10373943;28;20044;-71
2022/03/23 23:12:17;;;;;;;55.17;31.38;;;;;;;5.14;100.00;103001.41;10373101;28;20442;-71
2022/03/23 23:17:18;;;;;;;56.15;33.92;;;;;;;5.01;100.00;102991.81;10372017;28;20038;-71
2022/03/23 23:22:18;;;;;;;56.08;32.85;;;;;;;5.04;100.00;103007.88;10388056;28;20104;-71
2022/03/23 23:27:22;;;;;;;60.38;33.97;;;;;;;4.98;100.00;103011.25;10364115;28;20034;-71